Time;durP1;ratioP1;P1;durP2;ratioP2;P2;SDS_P1;SDS_P2;PMS_P1;PMS_P2;Temp;Humidity;BMP_temperature;BMP_pressure;BME280_temperature;BME280_humidity;BME280_pressure;Samples;Min_cycle;Max_cycle;Signal;HPM_P1;HPM_P2
2022/05/31 07:56:37;;;;;;;3.08;1.75;;;;;;;;;;6180770;22;21187;31
2022/05/31 07:59:03;;;;;;;;;;;;;;;;;;6218839;23;20083;-78
2022/05/31 09:49:48;;;;;;;8.27;6.65;;;;;;;;;;6307443;22;20445;-86
2022/05/31 09:52:20;;;;;;;12.10;7.65;;;;;;;;;;6308585;22;20018;-86
2022/05/31 09:58:26;;;;;;;6.35;5.75;;;;;;;;;;6266085;22;20330;-90
2022/05/31 10:01:04;;;;;;;10.50;7.22;;;;;;;;;;6277957;22;20299;-88
2022/05/31 10:03:37;;;;;;;9.13;6.20;;;;;;;;;;6281695;22;20074;-91
2022/05/31 10:06:19;;;;;;;6.53;5.85;;;;;;;;;;6279680;22;20027;-92
2022/05/31 10:08:51;;;;;;;7.00;6.30;;;;;;;;;;6250468;22;20307;-86
2022/05/31 10:11:27;;;;;;;4.45;4.05;;;;;;;;;;6280413;22;20056;-90
2022/05/31 10:13:58;;;;;;;8.55;5.68;;;;;;;;;;6281887;22;20069;-92
2022/05/31 10:16:27;;;;;;;5.38;4.88;;;;;;;;;;6278360;22;20070;-90
2022/05/31 10:18:54;;;;;;;4.70;4.22;;;;;;;;;;6250605;22;20339;-84
2022/05/31 10:21:41;;;;;;;6.65;5.45;;;;;;;;;;6277686;22;19995;-80
2022/05/31 10:24:20;;;;;;;5.97;4.22;;;;;;;;;;6277287;22;20000;-85
2022/05/31 10:27:06;;;;;;;6.40;5.43;;;;;;;;;;6277348;22;20480;-82
2022/05/31 10:29:40;;;;;;;6.47;5.60;;;;;;;;;;6277789;22;20418;-89
2022/05/31 10:32:34;;;;;;;6.55;5.18;;;;;;;;;;6277349;22;20014;-84
2022/05/31 10:35:14;;;;;;;6.10;5.20;;;;;;;;;;6249871;22;20010;-85
2022/05/31 10:38:04;;;;;;;5.88;5.30;;;;;;;;;;6277227;22;20403;-88
2022/05/31 10:40:39;;;;;;;5.15;3.70;;;;;;;;;;6249992;22;20034;-85
2022/05/31 10:43:15;;;;;;;6.88;4.90;;;;;;;;;;6277079;22;19999;-88
2022/05/31 10:45:42;;;;;;;11.50;6.13;;;;;;;;;;6277314;22;20000;-91
2022/05/31 10:48:08;;;;;;;6.10;5.47;;;;;;;;;;6277289;22;20052;-80
2022/05/31 10:51:04;;;;;;;6.38;5.65;;;;;;;;;;6276772;22;20027;-91
2022/05/31 10:53:48;;;;;;;5.57;4.70;;;;;;;;;;6273892;22;20011;-86
2022/05/31 10:56:37;;;;;;;8.00;5.70;;;;;;;;;;6277373;22;20035;-91
2022/05/31 10:59:17;;;;;;;6.85;5.25;;;;;;;;;;6277369;22;20043;-88
2022/05/31 11:01:49;;;;;;;4.60;4.10;;;;;;;;;;6277036;22;20015;-84
2022/05/31 11:04:22;;;;;;;5.28;4.78;;;;;;;;;;6279143;22;20034;-89
2022/05/31 11:07:07;;;;;;;4.53;4.13;;;;;;;;;;6252130;22;20008;-87
2022/05/31 11:12:47;;;;;;;6.90;4.85;;;;;;;;;;6279090;22;20018;-86
2022/05/31 11:15:29;;;;;;;4.43;4.03;;;;;;;;;;6251831;22;20031;-86
2022/05/31 11:18:07;;;;;;;4.82;4.30;;;;;;;;;;6251809;22;20034;-86
2022/05/31 11:20:37;;;;;;;3.95;3.55;;;;;;;;;;6252004;22;20010;-84
2022/05/31 11:23:35;;;;;;;5.65;4.30;;;;;;;;;;6278968;22;20049;-83
2022/05/31 11:26:23;;;;;;;5.72;3.72;;;;;;;;;;6195284;22;20373;-83
2022/05/31 11:29:10;;;;;;;4.20;3.85;;;;;;;;;;6278190;22;20026;-83
2022/05/31 11:31:56;;;;;;;6.30;3.65;;;;;;;;;;6278173;22;20061;-83
2022/05/31 11:34:22;;;;;;;5.60;4.10;;;;;;;;;;6279310;22;20478;-89
2022/05/31 11:37:08;;;;;;;4.80;4.40;;;;;;;;;;6252853;22;20027;-88
2022/05/31 11:39:53;;;;;;;4.13;3.70;;;;;;;;;;6280257;22;20003;-90
2022/05/31 11:42:37;;;;;;;5.90;4.47;;;;;;;;;;6280326;22;20318;-90
2022/05/31 11:45:41;;;;;;;4.75;4.35;;;;;;;;;;6279684;22;20061;-88
2022/05/31 11:48:39;;;;;;;5.60;5.00;;;;;;;;;;6279408;22;20010;-87
2022/05/31 16:53:29;;;;;;;4.18;3.55;;;;;;;;;;6278931;22;20334;-81
2022/05/31 16:55:56;;;;;;;4.85;3.58;;;;;;;;;;6308912;22;20060;-77
2022/05/31 16:58:22;;;;;;;5.00;3.22;;;;;;;;;;6309150;22;20003;-83
2022/05/31 17:00:48;;;;;;;4.00;3.38;;;;;;;;;;6282371;22;20449;-76
2022/05/31 17:03:13;;;;;;;4.28;3.30;;;;;;;;;;6278262;22;20000;-76
2022/05/31 17:05:39;;;;;;;4.75;3.50;;;;;;;;;;6277380;22;20004;-75
2022/05/31 17:16:16;;;;;;;4.35;2.92;;;;;;;;;;6277933;22;20014;-75
2022/05/31 17:18:42;;;;;;;4.13;3.00;;;;;;;;;;6277974;22;20411;-75
2022/05/31 17:21:08;;;;;;;3.80;3.20;;;;;;;;;;6277547;22;20060;-76
2022/05/31 17:23:37;;;;;;;3.40;3.05;;;;;;;;;;6250386;22;20019;-74
2022/05/31 17:26:08;;;;;;;4.10;3.45;;;;;;;;;;6278135;22;20010;-75
2022/05/31 17:28:44;;;;;;;7.60;3.13;;;;;;;;;;6277986;22;20019;-74
2022/05/31 17:31:09;;;;;;;4.03;3.20;;;;;;;;;;6277624;22;20000;-76
2022/05/31 17:33:34;;;;;;;4.30;3.25;;;;;;;;;;6277872;22;20011;-77
2022/05/31 17:36:04;;;;;;;3.38;2.67;;;;;;;;;;6277792;22;20003;-76
2022/05/31 17:38:32;;;;;;;5.70;3.33;;;;;;;;;;6277574;22;20134;-76
2022/05/31 17:40:57;;;;;;;3.50;3.05;;;;;;;;;;6277804;22;20042;-78
2022/05/31 17:43:23;;;;;;;5.90;3.40;;;;;;;;;;6277955;22;20058;-76
2022/05/31 17:45:48;;;;;;;6.78;3.10;;;;;;;;;;6277787;22;20015;-78
2022/05/31 17:48:14;;;;;;;7.38;3.75;;;;;;;;;;6277531;22;20004;-76
2022/05/31 17:50:39;;;;;;;7.03;3.00;;;;;;;;;;6277329;22;20039;-77
2022/05/31 17:53:09;;;;;;;4.10;2.55;;;;;;;;;;6277613;22;20013;-75
2022/05/31 17:55:35;;;;;;;4.95;3.25;;;;;;;;;;6277407;22;20070;-75
2022/05/31 17:58:00;;;;;;;4.60;3.08;;;;;;;;;;6277684;22;20000;-79
2022/05/31 18:00:25;;;;;;;3.85;2.95;;;;;;;;;;6277109;22;20004;-74
2022/05/31 18:02:51;;;;;;;4.65;3.03;;;;;;;;;;6277469;22;20036;-75
2022/05/31 18:05:16;;;;;;;4.63;3.13;;;;;;;;;;6277323;22;20469;-75
2022/05/31 18:07:42;;;;;;;5.07;3.00;;;;;;;;;;6277721;22;19999;-75
2022/05/31 18:10:10;;;;;;;3.83;3.10;;;;;;;;;;6277355;22;19999;-75
2022/05/31 18:12:35;;;;;;;5.70;3.13;;;;;;;;;;6277375;22;20011;-75
2022/05/31 18:15:01;;;;;;;4.15;3.50;;;;;;;;;;6277549;22;20007;-75
2022/05/31 18:17:27;;;;;;;5.10;3.03;;;;;;;;;;6277323;22;20003;-74
2022/05/31 18:19:53;;;;;;;4.00;3.20;;;;;;;;;;6277217;22;20015;-76
2022/05/31 18:22:20;;;;;;;3.60;3.28;;;;;;;;;;6277314;22;20003;-75
2022/05/31 18:24:48;;;;;;;3.50;3.20;;;;;;;;;;6277539;22;20000;-76
2022/05/31 18:27:14;;;;;;;5.73;3.30;;;;;;;;;;6277484;22;19999;-75
2022/05/31 18:29:47;;;;;;;4.72;3.30;;;;;;;;;;6277363;22;20304;-76
2022/05/31 18:32:22;;;;;;;4.10;3.25;;;;;;;;;;6277078;22;20019;-74
2022/05/31 18:34:50;;;;;;;3.80;3.50;;;;;;;;;;6277809;22;20031;-74
2022/05/31 18:42:38;;;;;;;3.78;3.45;;;;;;;;;;6287246;22;20004;-74
2022/05/31 18:45:15;;;;;;;4.43;3.28;;;;;;;;;;6277161;22;20015;-74
2022/05/31 18:47:42;;;;;;;4.63;3.20;;;;;;;;;;6277387;22;19996;-75
2022/05/31 18:50:08;;;;;;;4.70;3.33;;;;;;;;;;6250257;22;20000;-75
2022/05/31 18:52:35;;;;;;;5.78;3.92;;;;;;;;;;6276933;22;20010;-76
2022/05/31 18:55:00;;;;;;;5.13;3.60;;;;;;;;;;6276988;22;20023;-74
2022/05/31 18:57:27;;;;;;;5.40;3.47;;;;;;;;;;6277006;22;20045;-74
2022/05/31 18:59:56;;;;;;;3.63;3.33;;;;;;;;;;6277021;22;20004;-78
2022/05/31 19:02:30;;;;;;;;;;;;;;;;;;6277600;22;20342;-75
2022/05/31 19:04:56;;;;;;;5.72;3.78;;;;;;;;;;6276834;22;19972;-75
2022/05/31 19:07:23;;;;;;;5.50;3.65;;;;;;;;;;6276962;22;20000;-75
2022/05/31 19:09:49;;;;;;;4.75;3.60;;;;;;;;;;6276774;22;20415;-77
2022/05/31 19:12:15;;;;;;;5.30;3.42;;;;;;;;;;6277406;22;20103;-74
2022/05/31 19:14:42;;;;;;;5.10;3.45;;;;;;;;;;6277172;22;20008;-78
2022/05/31 19:17:10;;;;;;;3.92;3.45;;;;;;;;;;6277069;22;20394;-75
2022/05/31 19:19:38;;;;;;;6.18;3.83;;;;;;;;;;6277035;22;20004;-78
2022/05/31 19:22:04;;;;;;;5.93;3.60;;;;;;;;;;6277218;22;19999;-75
2022/05/31 19:24:29;;;;;;;5.13;3.50;;;;;;;;;;6277922;22;20053;-75
2022/05/31 19:26:55;;;;;;;5.28;3.40;;;;;;;;;;6279222;22;20004;-76
2022/05/31 19:29:20;;;;;;;4.28;3.75;;;;;;;;;;6279206;22;20347;-76
2022/05/31 19:31:48;;;;;;;6.78;3.92;;;;;;;;;;6278988;22;20004;-75
2022/05/31 19:34:43;;;;;;;4.70;3.85;;;;;;;;;;6279063;22;19999;-75
2022/05/31 19:37:12;;;;;;;4.82;3.75;;;;;;;;;;6279308;22;20431;-76
2022/05/31 19:39:39;;;;;;;4.55;3.63;;;;;;;;;;6252157;22;20058;-77
2022/05/31 19:42:07;;;;;;;5.70;3.45;;;;;;;;;;6251753;22;20008;-77
2022/05/31 19:44:33;;;;;;;4.80;3.50;;;;;;;;;;6251614;22;20031;-76
2022/05/31 19:46:59;;;;;;;4.65;4.10;;;;;;;;;;6278878;22;20419;-75
2022/05/31 19:49:25;;;;;;;5.50;3.75;;;;;;;;;;6278609;22;20050;-77
2022/05/31 19:51:50;;;;;;;6.97;4.20;;;;;;;;;;6279108;22;20399;-75
2022/05/31 19:54:20;;;;;;;5.20;3.78;;;;;;;;;;6278593;22;20020;-76
2022/05/31 19:56:45;;;;;;;5.05;3.50;;;;;;;;;;6278979;22;20330;-77
2022/05/31 19:59:11;;;;;;;5.65;4.05;;;;;;;;;;6278690;22;19996;-77
2022/05/31 20:01:37;;;;;;;3.88;3.58;;;;;;;;;;6278558;22;20015;-77
2022/05/31 20:04:02;;;;;;;6.07;4.07;;;;;;;;;;6278568;22;20304;-75
2022/05/31 20:06:28;;;;;;;4.93;3.85;;;;;;;;;;6278973;22;20053;-74
2022/05/31 20:11:37;;;;;;;5.32;3.72;;;;;;;;;;6278581;22;20015;-75
2022/05/31 20:14:06;;;;;;;5.53;4.20;;;;;;;;;;6277952;22;20000;-75
2022/05/31 20:16:37;;;;;;;5.95;4.15;;;;;;;;;;6278428;22;20375;-75
2022/05/31 20:19:36;;;;;;;5.43;4.13;;;;;;;;;;6279245;22;20010;-78
2022/05/31 20:21:55;;;;;;;6.85;4.32;;;;;;;;;;6266136;22;20065;-76
2022/05/31 20:24:24;;;;;;;5.28;3.72;;;;;;;;;;6278577;22;20003;-80
2022/05/31 20:26:50;;;;;;;3.97;3.58;;;;;;;;;;6278422;22;20355;-77
2022/05/31 20:29:17;;;;;;;6.13;3.90;;;;;;;;;;6278502;22;20007;-76
2022/05/31 20:31:43;;;;;;;5.72;4.20;;;;;;;;;;6278259;22;20003;-78
2022/05/31 20:34:12;;;;;;;4.70;3.55;;;;;;;;;;6278822;22;20004;-76
2022/05/31 20:36:39;;;;;;;5.30;4.38;;;;;;;;;;6278642;22;20537;-76
2022/05/31 20:39:08;;;;;;;8.05;4.30;;;;;;;;;;6278575;22;20389;-78
2022/05/31 20:41:38;;;;;;;4.70;3.92;;;;;;;;;;6278401;22;20085;-76
2022/05/31 20:44:06;;;;;;;4.30;3.78;;;;;;;;;;6278531;22;20004;-81
2022/05/31 20:46:32;;;;;;;5.45;4.10;;;;;;;;;;6278712;22;20030;-76
2022/05/31 20:48:58;;;;;;;7.57;4.15;;;;;;;;;;6278160;22;20041;-82
2022/05/31 20:51:25;;;;;;;4.47;3.70;;;;;;;;;;6278278;22;20000;-77
2022/05/31 20:53:51;;;;;;;4.07;3.63;;;;;;;;;;6278083;22;20026;-76
2022/05/31 20:56:16;;;;;;;6.78;4.00;;;;;;;;;;6278277;22;20000;-79
2022/05/31 20:58:42;;;;;;;5.28;3.88;;;;;;;;;;6278312;22;20057;-75
2022/05/31 21:01:08;;;;;;;6.18;4.40;;;;;;;;;;6278064;22;20004;-77
2022/05/31 21:03:34;;;;;;;4.20;3.80;;;;;;;;;;6278220;22;19996;-75
2022/05/31 21:06:00;;;;;;;5.57;4.00;;;;;;;;;;6278219;22;20050;-75
2022/05/31 21:08:26;;;;;;;4.88;4.03;;;;;;;;;;6278059;22;20330;-75
2022/05/31 21:10:53;;;;;;;5.43;3.75;;;;;;;;;;6277876;22;20003;-77
2022/05/31 21:13:21;;;;;;;4.38;3.88;;;;;;;;;;6277928;22;20075;-76
2022/05/31 21:15:50;;;;;;;6.45;4.80;;;;;;;;;;6250736;22;20334;-79
2022/05/31 21:18:16;;;;;;;5.07;4.47;;;;;;;;;;6277847;22;20087;-76
2022/05/31 21:20:43;;;;;;;6.72;4.40;;;;;;;;;;6278343;22;20046;-76
2022/05/31 21:23:14;;;;;;;7.28;4.25;;;;;;;;;;6277776;22;20014;-77
2022/05/31 21:25:40;;;;;;;4.93;4.38;;;;;;;;;;6278176;22;20068;-75
2022/05/31 21:28:10;;;;;;;6.30;4.65;;;;;;;;;;6278139;22;19999;-75
2022/05/31 21:30:36;;;;;;;6.25;4.10;;;;;;;;;;6277827;22;20656;-75
2022/05/31 21:33:03;;;;;;;5.68;4.18;;;;;;;;;;6277776;22;20004;-77
2022/05/31 21:35:29;;;;;;;6.10;4.13;;;;;;;;;;6277859;22;20087;-76
2022/05/31 21:37:55;;;;;;;5.18;4.13;;;;;;;;;;6277855;22;20046;-75
2022/05/31 21:43:05;;;;;;;4.47;4.07;;;;;;;;;;6277741;22;20014;-76
2022/05/31 21:45:36;;;;;;;7.15;4.40;;;;;;;;;;6277727;22;19999;-78
2022/05/31 21:48:02;;;;;;;6.07;4.45;;;;;;;;;;6251476;22;20004;-76
2022/05/31 21:50:32;;;;;;;5.15;4.25;;;;;;;;;;6277616;22;20007;-76
2022/05/31 21:53:01;;;;;;;6.80;4.78;;;;;;;;;;6277553;22;20020;-75
2022/05/31 21:55:28;;;;;;;7.30;4.72;;;;;;;;;;6277658;22;19999;-76
2022/05/31 21:57:54;;;;;;;6.68;4.78;;;;;;;;;;6277459;22;20300;-78
2022/05/31 22:00:41;;;;;;;4.57;4.18;;;;;;;;;;6277465;22;20090;-76
2022/05/31 22:03:08;;;;;;;5.15;4.00;;;;;;;;;;6277810;22;20031;-78
2022/05/31 22:05:33;;;;;;;5.68;4.25;;;;;;;;;;6250441;22;20000;-76
2022/05/31 22:07:59;;;;;;;5.15;4.60;;;;;;;;;;6277543;22;20053;-77
2022/05/31 22:10:25;;;;;;;4.95;4.43;;;;;;;;;;6277411;22;20441;-77
